Terminal Aerodrome Forecast
Issued by NWS

Home | Current Version | Previous Version | Text Only | Print | Product List | Glossary On
Versions: 1 2 3 4 5 6 7 8 9 10 11 12 13 14 15 16 17 18 19 20 21
000
FTUS45 KREV 031100
TAFTVL
TAF
KTVL 031120Z 0312/0412 19005KT P6SM SCT070
     FM031800 04007KT P6SM SCT200
     FM032200 20010G18KT P6SM SCT250
     FM040200 VRB03KT P6SM SCT250=

USA.gov is the U.S. government's official web portal to all federal, state and local government web resources and services.